PrentiSS Brown — WDE6848 — position and weather

sailwx.info

Track history (hours):
 
Tides and Currents Weather Stations Pressure Air Temp Water Temp Dewpoint Dewpoint Depression Visibility Wind Speed Wind Dir Waves Ship Positions

PrentiSS Brown

More information available from US FCC via Universal Licensing System and Coast Guard Vessel Documentation Center.

Last reported at 2014-Jul-11 11:18 UTC. Time now 2014-Jul-29 08:47 UTC.
Position N 44°50' W 087°23'.
Warning: this ship's position is 17 days out of date.

Length 38 m; draft 5.1 m.

Type: Other ship. MMSI: 366922280.

Date/timePositionNaut miles runAvg speedWind from/ knotsBaromVisibWave heightAir tempDewpointWater temp
2014-Jul-11 11:18N 44°50' W 087°23'0 0.0
2014-Jul-11 10:30N 44°50' W 087°23'0 0.0
2014-Jul-11 09:30N 44°50' W 087°23'  
2014-Jul-04 20:33N 45°28' W 086°22'9 8.9
2014-Jul-04 19:31N 45°30' W 086°09'10 8.9
2014-Jul-04 18:25N 45°31' W 085°56'8 8.8
2014-Jul-04 17:33N 45°31' W 085°45'8 8.4
2014-Jul-04 16:33N 45°29' W 085°33'9 8.9
2014-Jul-04 15:33N 45°23' W 085°23'6 5.7
2014-Jul-04 14:33N 45°19' W 085°18'0 0.1
2014-Jul-04 13:33N 45°19' W 085°18'0 0.0
2014-Jul-04 12:33N 45°19' W 085°18'0 0.0
2014-Jul-04 11:33N 45°19' W 085°18'0 0.0
2014-Jul-04 10:33N 45°19' W 085°18'0 0.0
2014-Jul-04 09:33N 45°19' W 085°18'0 0.0
2014-Jul-04 08:33N 45°19' W 085°18'0 0.0
2014-Jul-04 07:33N 45°19' W 085°18'6 5.8
2014-Jul-04 06:33N 45°25' W 085°17'10 9.8
2014-Jul-04 05:33N 45°35' W 085°16'10 9.7
2014-Jul-04 04:33N 45°44' W 085°11'8 8.2
2014-Jul-04 03:33N 45°50' W 085°03'1010.0
2014-Jul-04 02:33N 45°49' W 084°49'10 9.7
2014-Jul-04 01:33N 45°46' W 084°36'10 9.9
2014-Jul-04 00:33N 45°41' W 084°23'  
2014-Jul-01 20:20N 45°41' W 084°14'810.0
2014-Jul-01 19:33N 45°42' W 084°25'10 9.9
2014-Jul-01 18:33N 45°46' W 084°37'10 9.8
2014-Jul-01 17:33N 45°49' W 084°51'10 9.7
2014-Jul-01 16:33N 45°50' W 085°05'8 8.3
2014-Jul-01 15:33N 45°43' W 085°11'9 9.1
2014-Jul-01 14:33N 45°34' W 085°16'9 9.2
2014-Jul-01 13:33N 45°25' W 085°17'6 5.9
2014-Jul-01 12:33N 45°19' W 085°18'0 0.0
2014-Jul-01 11:33N 45°19' W 085°18'  
Track history (hours):
 
Tides and Currents Weather Stations Pressure Air Temp Water Temp Dewpoint Dewpoint Depression Visibility Wind Speed Wind Dir Waves Ship Positions

PrentiSS Brown

More information available from US FCC via Universal Licensing System and Coast Guard Vessel Documentation Center.

Last reported at 2014-Jul-11 11:18 UTC. Time now 2014-Jul-29 08:47 UTC.
Position N 44°50' W 087°23'.
Warning: this ship's position is 17 days out of date.

Length 38 m; draft 5.1 m.

Type: Other ship. MMSI: 366922280.

Date/timePositionNaut miles runAvg speedWind from/ knotsBaromVisibWave heightAir tempDewpointWater temp
2014-Jul-11 11:18N 44°50' W 087°23'0 0.0
2014-Jul-11 10:30N 44°50' W 087°23'0 0.0
2014-Jul-11 09:30N 44°50' W 087°23'  
2014-Jul-04 20:33N 45°28' W 086°22'9 8.9
2014-Jul-04 19:31N 45°30' W 086°09'10 8.9
2014-Jul-04 18:25N 45°31' W 085°56'8 8.8
2014-Jul-04 17:33N 45°31' W 085°45'8 8.4
2014-Jul-04 16:33N 45°29' W 085°33'9 8.9
2014-Jul-04 15:33N 45°23' W 085°23'6 5.7
2014-Jul-04 14:33N 45°19' W 085°18'0 0.1
2014-Jul-04 13:33N 45°19' W 085°18'0 0.0
2014-Jul-04 12:33N 45°19' W 085°18'0 0.0
2014-Jul-04 11:33N 45°19' W 085°18'0 0.0
2014-Jul-04 10:33N 45°19' W 085°18'0 0.0
2014-Jul-04 09:33N 45°19' W 085°18'0 0.0
2014-Jul-04 08:33N 45°19' W 085°18'0 0.0
2014-Jul-04 07:33N 45°19' W 085°18'6 5.8
2014-Jul-04 06:33N 45°25' W 085°17'10 9.8
2014-Jul-04 05:33N 45°35' W 085°16'10 9.7
2014-Jul-04 04:33N 45°44' W 085°11'8 8.2
2014-Jul-04 03:33N 45°50' W 085°03'1010.0
2014-Jul-04 02:33N 45°49' W 084°49'10 9.7
2014-Jul-04 01:33N 45°46' W 084°36'10 9.9
2014-Jul-04 00:33N 45°41' W 084°23'  
2014-Jul-01 20:20N 45°41' W 084°14'810.0
2014-Jul-01 19:33N 45°42' W 084°25'10 9.9
2014-Jul-01 18:33N 45°46' W 084°37'10 9.8
2014-Jul-01 17:33N 45°49' W 084°51'10 9.7
2014-Jul-01 16:33N 45°50' W 085°05'8 8.3
2014-Jul-01 15:33N 45°43' W 085°11'9 9.1
2014-Jul-01 14:33N 45°34' W 085°16'9 9.2
2014-Jul-01 13:33N 45°25' W 085°17'6 5.9
2014-Jul-01 12:33N 45°19' W 085°18'0 0.0
2014-Jul-01 11:33N 45°19' W 085°18'  

Dump ship's entire track history